sensor_id;sensor_type;location;lat;lon;timestamp;pressure;altitude;pressure_sealevel;temperature;humidity
22651;BME280;11492;42.646;23.400;2023-05-20T00:01:31;95350.75;;;12.27;77.88
22651;BME280;11492;42.646;23.400;2023-05-20T00:03:56;95357.00;;;12.33;78.22
22651;BME280;11492;42.646;23.400;2023-05-20T00:06:22;95358.00;;;12.32;78.27
22651;BME280;11492;42.646;23.400;2023-05-20T00:08:47;95352.34;;;12.28;77.99
22651;BME280;11492;42.646;23.400;2023-05-20T00:11:13;95342.81;;;12.29;78.19
22651;BME280;11492;42.646;23.400;2023-05-20T00:13:38;95345.84;;;12.18;78.63
22651;BME280;11492;42.646;23.400;2023-05-20T00:16:04;95345.84;;;12.18;78.25
22651;BME280;11492;42.646;23.400;2023-05-20T00:18:30;95363.44;;;12.22;78.90
22651;BME280;11492;42.646;23.400;2023-05-20T00:20:57;95354.06;;;12.21;78.46
22651;BME280;11492;42.646;23.400;2023-05-20T00:23:22;95367.44;;;12.25;78.55
22651;BME280;11492;42.646;23.400;2023-05-20T00:25:48;95359.41;;;12.20;78.04
22651;BME280;11492;42.646;23.400;2023-05-20T00:28:14;95357.63;;;12.20;77.95
22651;BME280;11492;42.646;23.400;2023-05-20T00:30:40;95354.25;;;11.92;79.22
22651;BME280;11492;42.646;23.400;2023-05-20T00:33:06;95350.22;;;11.75;79.88
22651;BME280;11492;42.646;23.400;2023-05-20T00:35:31;95339.44;;;11.86;79.63
22651;BME280;11492;42.646;23.400;2023-05-20T00:37:57;95344.88;;;11.91;79.73
22651;BME280;11492;42.646;23.400;2023-05-20T00:40:22;95329.69;;;11.73;79.77
22651;BME280;11492;42.646;23.400;2023-05-20T00:42:49;95334.72;;;11.75;80.01
22651;BME280;11492;42.646;23.400;2023-05-20T00:45:15;95327.78;;;11.53;80.41
22651;BME280;11492;42.646;23.400;2023-05-20T00:47:41;95325.22;;;11.39;81.38
22651;BME280;11492;42.646;23.400;2023-05-20T00:50:08;95329.63;;;11.31;81.81
22651;BME280;11492;42.646;23.400;2023-05-20T00:52:35;95320.97;;;11.24;82.32
22651;BME280;11492;42.646;23.400;2023-05-20T00:55:01;95318.44;;;11.16;83.26
22651;BME280;11492;42.646;23.400;2023-05-20T00:57:28;95321.72;;;11.10;82.61
22651;BME280;11492;42.646;23.400;2023-05-20T00:59:54;95323.81;;;11.29;82.91
22651;BME280;11492;42.646;23.400;2023-05-20T01:02:20;95307.09;;;11.17;81.43
22651;BME280;11492;42.646;23.400;2023-05-20T01:04:45;95325.38;;;11.38;81.45
22651;BME280;11492;42.646;23.400;2023-05-20T01:07:15;95332.28;;;11.59;80.41
22651;BME280;11492;42.646;23.400;2023-05-20T01:09:41;95332.19;;;11.67;79.50
22651;BME280;11492;42.646;23.400;2023-05-20T01:12:21;95339.69;;;11.76;80.13
22651;BME280;11492;42.646;23.400;2023-05-20T01:14:48;95335.31;;;11.77;78.71
22651;BME280;11492;42.646;23.400;2023-05-20T01:17:15;95337.81;;;11.85;79.43
22651;BME280;11492;42.646;23.400;2023-05-20T01:19:45;95339.88;;;11.89;79.32
22651;BME280;11492;42.646;23.400;2023-05-20T01:22:12;95345.94;;;11.82;78.97
22651;BME280;11492;42.646;23.400;2023-05-20T01:24:40;95336.94;;;11.78;78.32
22651;BME280;11492;42.646;23.400;2023-05-20T01:27:06;95319.78;;;11.63;78.86
22651;BME280;11492;42.646;23.400;2023-05-20T01:29:35;95322.47;;;11.55;78.88
22651;BME280;11492;42.646;23.400;2023-05-20T01:32:05;95325.16;;;11.61;79.56
22651;BME280;11492;42.646;23.400;2023-05-20T01:34:33;95275.16;;;11.32;78.71
22651;BME280;11492;42.646;23.400;2023-05-20T01:37:01;95340.56;;;11.69;79.15
22651;BME280;11492;42.646;23.400;2023-05-20T01:39:29;95339.16;;;11.67;79.35
22651;BME280;11492;42.646;23.400;2023-05-20T01:41:55;95337.72;;;11.64;79.58
22651;BME280;11492;42.646;23.400;2023-05-20T01:44:21;95338.47;;;11.36;80.00
22651;BME280;11492;42.646;23.400;2023-05-20T01:46:49;95327.00;;;11.39;79.89
22651;BME280;11492;42.646;23.400;2023-05-20T01:49:15;95332.16;;;11.53;79.59
22651;BME280;11492;42.646;23.400;2023-05-20T01:51:40;95325.22;;;11.53;79.84
22651;BME280;11492;42.646;23.400;2023-05-20T01:54:06;95313.53;;;11.57;78.96
22651;BME280;11492;42.646;23.400;2023-05-20T01:56:31;95325.94;;;11.62;78.66
22651;BME280;11492;42.646;23.400;2023-05-20T01:58:57;95329.16;;;11.64;78.39
22651;BME280;11492;42.646;23.400;2023-05-20T02:01:22;95323.81;;;11.65;79.36
22651;BME280;11492;42.646;23.400;2023-05-20T02:03:47;95329.59;;;11.67;78.55
22651;BME280;11492;42.646;23.400;2023-05-20T02:06:13;95325.59;;;11.65;79.38
22651;BME280;11492;42.646;23.400;2023-05-20T02:08:38;95317.38;;;11.61;78.59
22651;BME280;11492;42.646;23.400;2023-05-20T02:11:04;95326.75;;;11.62;78.84
22651;BME280;11492;42.646;23.400;2023-05-20T02:13:29;95321.94;;;11.59;78.60
22651;BME280;11492;42.646;23.400;2023-05-20T02:15:55;95327.91;;;11.60;78.49
22651;BME280;11492;42.646;23.400;2023-05-20T02:18:20;95323.19;;;11.63;78.64
22651;BME280;11492;42.646;23.400;2023-05-20T02:20:46;95315.66;;;11.54;78.79
22651;BME280;11492;42.646;23.400;2023-05-20T02:23:12;95312.19;;;11.47;78.61
22651;BME280;11492;42.646;23.400;2023-05-20T02:25:37;95320.59;;;11.49;78.35
22651;BME280;11492;42.646;23.400;2023-05-20T02:28:02;95316.75;;;11.45;79.04
22651;BME280;11492;42.646;23.400;2023-05-20T02:30:30;95316.91;;;11.44;78.79
22651;BME280;11492;42.646;23.400;2023-05-20T02:32:55;95310.13;;;11.43;78.85
22651;BME280;11492;42.646;23.400;2023-05-20T02:35:22;95302.09;;;11.38;78.51
22651;BME280;11492;42.646;23.400;2023-05-20T02:37:47;95294.53;;;11.36;79.20
22651;BME280;11492;42.646;23.400;2023-05-20T02:40:13;95302.56;;;11.41;79.01
22651;BME280;11492;42.646;23.400;2023-05-20T02:42:39;95311.53;;;11.31;79.10
22651;BME280;11492;42.646;23.400;2023-05-20T02:45:05;95313.81;;;11.26;78.83
22651;BME280;11492;42.646;23.400;2023-05-20T02:47:31;95310.97;;;11.21;78.94
22651;BME280;11492;42.646;23.400;2023-05-20T02:49:56;95300.44;;;11.08;79.63
22651;BME280;11492;42.646;23.400;2023-05-20T02:52:22;95311.03;;;11.13;79.32
22651;BME280;11492;42.646;23.400;2023-05-20T02:54:47;95310.41;;;11.11;79.99
22651;BME280;11492;42.646;23.400;2023-05-20T02:57:13;95314.75;;;11.11;79.67
22651;BME280;11492;42.646;23.400;2023-05-20T02:59:38;95309.50;;;11.04;80.53
22651;BME280;11492;42.646;23.400;2023-05-20T03:02:04;95304.31;;;11.04;80.57
22651;BME280;11492;42.646;23.400;2023-05-20T03:04:29;95310.47;;;11.03;79.45
22651;BME280;11492;42.646;23.400;2023-05-20T03:06:56;95315.78;;;11.02;79.72
22651;BME280;11492;42.646;23.400;2023-05-20T03:09:23;95322.13;;;10.99;79.76
22651;BME280;11492;42.646;23.400;2023-05-20T03:11:49;95309.00;;;10.87;79.88
22651;BME280;11492;42.646;23.400;2023-05-20T03:14:15;95324.44;;;10.95;80.46
22651;BME280;11492;42.646;23.400;2023-05-20T03:16:40;95324.44;;;10.95;80.88
22651;BME280;11492;42.646;23.400;2023-05-20T03:19:06;95326.72;;;10.90;80.64
22651;BME280;11492;42.646;23.400;2023-05-20T03:21:31;95329.25;;;10.97;80.43
22651;BME280;11492;42.646;23.400;2023-05-20T03:23:58;95321.56;;;10.90;79.94
22651;BME280;11492;42.646;23.400;2023-05-20T03:26:24;95317.66;;;10.94;79.50
22651;BME280;11492;42.646;23.400;2023-05-20T03:28:50;95330.56;;;11.16;80.23
22651;BME280;11492;42.646;23.400;2023-05-20T03:31:15;95325.00;;;11.04;79.07
22651;BME280;11492;42.646;23.400;2023-05-20T03:33:41;95317.16;;;11.12;79.03
22651;BME280;11492;42.646;23.400;2023-05-20T03:36:07;95326.84;;;11.18;79.22
22651;BME280;11492;42.646;23.400;2023-05-20T03:38:32;95336.19;;;11.19;78.92
22651;BME280;11492;42.646;23.400;2023-05-20T03:40:58;95331.91;;;11.26;78.79
22651;BME280;11492;42.646;23.400;2023-05-20T03:43:23;95338.63;;;11.35;78.13
22651;BME280;11492;42.646;23.400;2023-05-20T03:45:49;95342.31;;;11.40;78.87
22651;BME280;11492;42.646;23.400;2023-05-20T03:48:15;95345.72;;;11.41;79.41
22651;BME280;11492;42.646;23.400;2023-05-20T03:50:40;95335.72;;;11.38;79.25
22651;BME280;11492;42.646;23.400;2023-05-20T03:53:06;95345.34;;;11.44;78.67
22651;BME280;11492;42.646;23.400;2023-05-20T03:55:32;95348.31;;;11.41;78.96
22651;BME280;11492;42.646;23.400;2023-05-20T03:57:57;95356.44;;;11.52;79.41
22651;BME280;11492;42.646;23.400;2023-05-20T04:00:23;95351.06;;;11.53;79.74
22651;BME280;11492;42.646;23.400;2023-05-20T04:02:48;95360.19;;;11.64;79.18
22651;BME280;11492;42.646;23.400;2023-05-20T04:05:14;95357.53;;;11.71;80.54
22651;BME280;11492;42.646;23.400;2023-05-20T04:07:39;95358.44;;;12.07;82.28
22651;BME280;11492;42.646;23.400;2023-05-20T04:10:06;95362.38;;;12.17;79.88
22651;BME280;11492;42.646;23.400;2023-05-20T04:12:31;95354.34;;;12.26;78.77
22651;BME280;11492;42.646;23.400;2023-05-20T04:14:58;95367.44;;;12.25;78.14
22651;BME280;11492;42.646;23.400;2023-05-20T04:17:26;95365.31;;;12.28;77.45
22651;BME280;11492;42.646;23.400;2023-05-20T04:19:54;95348.06;;;12.21;77.67
22651;BME280;11492;42.646;23.400;2023-05-20T04:22:20;95349.97;;;12.27;77.87
22651;BME280;11492;42.646;23.400;2023-05-20T04:24:45;95355.56;;;12.30;77.35
22651;BME280;11492;42.646;23.400;2023-05-20T04:27:11;95357.34;;;12.30;77.30
22651;BME280;11492;42.646;23.400;2023-05-20T04:29:36;95351.91;;;12.39;79.34
22651;BME280;11492;42.646;23.400;2023-05-20T04:32:02;95348.50;;;12.39;78.11
22651;BME280;11492;42.646;23.400;2023-05-20T04:34:28;95359.16;;;12.64;78.86
22651;BME280;11492;42.646;23.400;2023-05-20T04:36:54;95351.13;;;12.59;77.51
22651;BME280;11492;42.646;23.400;2023-05-20T04:39:22;95356.03;;;12.69;78.11
22651;BME280;11492;42.646;23.400;2023-05-20T04:41:47;95349.53;;;12.58;76.25
22651;BME280;11492;42.646;23.400;2023-05-20T04:44:13;95362.75;;;12.63;76.08
22651;BME280;11492;42.646;23.400;2023-05-20T04:46:38;95370.16;;;12.66;75.99
22651;BME280;11492;42.646;23.400;2023-05-20T04:49:04;95368.53;;;12.65;76.31
22651;BME280;11492;42.646;23.400;2023-05-20T04:51:30;95367.19;;;12.69;75.05
22651;BME280;11492;42.646;23.400;2023-05-20T04:53:55;95358.91;;;12.73;74.60
22651;BME280;11492;42.646;23.400;2023-05-20T04:56:21;95377.44;;;12.91;74.70
22651;BME280;11492;42.646;23.400;2023-05-20T04:58:46;95376.69;;;12.97;75.09
22651;BME280;11492;42.646;23.400;2023-05-20T05:01:12;95365.84;;;13.08;74.04
22651;BME280;11492;42.646;23.400;2023-05-20T05:03:37;95369.91;;;12.96;73.51
22651;BME280;11492;42.646;23.400;2023-05-20T05:06:02;95372.06;;;13.13;73.52
22651;BME280;11492;42.646;23.400;2023-05-20T05:08:28;95369.06;;;13.30;73.47
22651;BME280;11492;42.646;23.400;2023-05-20T05:10:53;95365.53;;;13.38;72.73
22651;BME280;11492;42.646;23.400;2023-05-20T05:13:19;95375.41;;;13.48;72.24
22651;BME280;11492;42.646;23.400;2023-05-20T05:15:44;95369.50;;;13.61;72.29
22651;BME280;11492;42.646;23.400;2023-05-20T05:18:10;95360.56;;;13.63;72.04
22651;BME280;11492;42.646;23.400;2023-05-20T05:20:35;95372.69;;;13.83;71.70
22651;BME280;11492;42.646;23.400;2023-05-20T05:23:01;95359.56;;;13.91;71.08
22651;BME280;11492;42.646;23.400;2023-05-20T05:25:26;95360.84;;;14.01;71.15
22651;BME280;11492;42.646;23.400;2023-05-20T05:27:51;95361.72;;;14.08;71.27
22651;BME280;11492;42.646;23.400;2023-05-20T05:30:19;95353.38;;;14.19;71.15
22651;BME280;11492;42.646;23.400;2023-05-20T05:32:46;95352.22;;;14.28;70.20
22651;BME280;11492;42.646;23.400;2023-05-20T05:35:11;95353.91;;;14.48;70.12
22651;BME280;11492;42.646;23.400;2023-05-20T05:37:37;95343.78;;;14.59;70.10
22651;BME280;11492;42.646;23.400;2023-05-20T05:40:03;95342.81;;;14.73;69.00
22651;BME280;11492;42.646;23.400;2023-05-20T05:42:28;95337.66;;;14.86;68.59
22651;BME280;11492;42.646;23.400;2023-05-20T05:44:53;95348.91;;;15.05;68.39
22651;BME280;11492;42.646;23.400;2023-05-20T05:47:20;95348.34;;;15.16;68.03
22651;BME280;11492;42.646;23.400;2023-05-20T05:49:45;95348.97;;;15.31;67.42
22651;BME280;11492;42.646;23.400;2023-05-20T05:52:11;95353.78;;;15.46;67.30
22651;BME280;11492;42.646;23.400;2023-05-20T05:54:36;95359.00;;;15.59;66.87
22651;BME280;11492;42.646;23.400;2023-05-20T05:57:02;95343.38;;;15.72;66.70
22651;BME280;11492;42.646;23.400;2023-05-20T05:59:27;95350.78;;;15.88;66.31
22651;BME280;11492;42.646;23.400;2023-05-20T06:01:53;95345.75;;;16.05;65.40
22651;BME280;11492;42.646;23.400;2023-05-20T06:04:18;95340.16;;;16.15;65.64
22651;BME280;11492;42.646;23.400;2023-05-20T06:06:44;95330.91;;;16.25;65.34
22651;BME280;11492;42.646;23.400;2023-05-20T06:09:09;95334.06;;;16.40;65.08
22651;BME280;11492;42.646;23.400;2023-05-20T06:11:34;95331.19;;;16.54;64.86
22651;BME280;11492;42.646;23.400;2023-05-20T06:14:00;95332.38;;;16.64;64.70
22651;BME280;11492;42.646;23.400;2023-05-20T06:16:26;95330.50;;;16.77;63.86
22651;BME280;11492;42.646;23.400;2023-05-20T06:18:51;95323.00;;;16.94;63.26
22651;BME280;11492;42.646;23.400;2023-05-20T06:21:21;95321.34;;;17.05;63.42
22651;BME280;11492;42.646;23.400;2023-05-20T06:23:46;95327.97;;;17.08;59.48
22651;BME280;11492;42.646;23.400;2023-05-20T06:26:12;95322.66;;;17.21;59.86
22651;BME280;11492;42.646;23.400;2023-05-20T06:28:38;95328.78;;;17.32;58.77
22651;BME280;11492;42.646;23.400;2023-05-20T06:31:03;95309.41;;;17.46;58.37
22651;BME280;11492;42.646;23.400;2023-05-20T06:33:28;95304.75;;;17.54;58.74
22651;BME280;11492;42.646;23.400;2023-05-20T06:35:55;95318.84;;;17.71;58.30
22651;BME280;11492;42.646;23.400;2023-05-20T06:38:21;95307.94;;;17.80;58.56
22651;BME280;11492;42.646;23.400;2023-05-20T06:40:50;95309.16;;;17.96;57.99
22651;BME280;11492;42.646;23.400;2023-05-20T06:43:16;95311.69;;;18.08;56.79
22651;BME280;11492;42.646;23.400;2023-05-20T06:45:42;95302.13;;;18.20;55.80
22651;BME280;11492;42.646;23.400;2023-05-20T06:48:07;95293.84;;;18.23;56.18
22651;BME280;11492;42.646;23.400;2023-05-20T06:50:33;95302.69;;;18.40;55.43
22651;BME280;11492;42.646;23.400;2023-05-20T06:52:58;95298.41;;;18.45;55.11
22651;BME280;11492;42.646;23.400;2023-05-20T06:55:24;95305.16;;;18.52;54.67
22651;BME280;11492;42.646;23.400;2023-05-20T06:57:50;95300.88;;;18.58;55.26
22651;BME280;11492;42.646;23.400;2023-05-20T07:00:16;95308.34;;;18.72;55.65
22651;BME280;11492;42.646;23.400;2023-05-20T07:02:41;95305.59;;;18.85;55.32
22651;BME280;11492;42.646;23.400;2023-05-20T07:05:08;95300.63;;;18.95;55.47
22651;BME280;11492;42.646;23.400;2023-05-20T07:07:33;95308.16;;;19.02;54.77
22651;BME280;11492;42.646;23.400;2023-05-20T07:09:59;95292.47;;;19.02;53.84
22651;BME280;11492;42.646;23.400;2023-05-20T07:12:24;95295.09;;;19.14;53.04
22651;BME280;11492;42.646;23.400;2023-05-20T07:14:49;95296.75;;;19.26;54.61
22651;BME280;11492;42.646;23.400;2023-05-20T07:17:15;95288.31;;;19.35;54.34
22651;BME280;11492;42.646;23.400;2023-05-20T07:19:41;95288.59;;;19.45;53.10
22651;BME280;11492;42.646;23.400;2023-05-20T07:22:06;95288.16;;;19.59;53.62
22651;BME280;11492;42.646;23.400;2023-05-20T07:24:32;95288.72;;;19.50;51.88
22651;BME280;11492;42.646;23.400;2023-05-20T07:26:57;95282.00;;;19.65;50.90
22651;BME280;11492;42.646;23.400;2023-05-20T07:29:23;95284.78;;;19.70;51.83
22651;BME280;11492;42.646;23.400;2023-05-20T07:31:48;95281.16;;;19.82;51.71
22651;BME280;11492;42.646;23.400;2023-05-20T07:34:14;95287.44;;;19.93;50.40
22651;BME280;11492;42.646;23.400;2023-05-20T07:36:39;95291.75;;;20.10;49.30
22651;BME280;11492;42.646;23.400;2023-05-20T07:39:05;95292.09;;;20.24;49.91
22651;BME280;11492;42.646;23.400;2023-05-20T07:41:31;95296.50;;;20.35;49.88
22651;BME280;11492;42.646;23.400;2023-05-20T07:43:57;95298.69;;;20.49;50.65
22651;BME280;11492;42.646;23.400;2023-05-20T07:46:22;95285.28;;;20.62;50.33
22651;BME280;11492;42.646;23.400;2023-05-20T07:48:48;95293.47;;;20.77;50.02
22651;BME280;11492;42.646;23.400;2023-05-20T07:51:13;95293.44;;;20.88;50.01
22651;BME280;11492;42.646;23.400;2023-05-20T07:53:38;95283.47;;;21.01;50.17
22651;BME280;11492;42.646;23.400;2023-05-20T07:56:04;95281.63;;;21.29;49.42
22651;BME280;11492;42.646;23.400;2023-05-20T07:58:30;95282.41;;;21.74;47.71
22651;BME280;11492;42.646;23.400;2023-05-20T08:00:56;95287.41;;;22.45;46.90
22651;BME280;11492;42.646;23.400;2023-05-20T08:03:21;95280.28;;;23.03;45.31
22651;BME280;11492;42.646;23.400;2023-05-20T08:05:47;95269.00;;;23.60;42.71
22651;BME280;11492;42.646;23.400;2023-05-20T08:08:12;95277.53;;;24.07;42.04
22651;BME280;11492;42.646;23.400;2023-05-20T08:10:38;95279.97;;;24.54;41.07
22651;BME280;11492;42.646;23.400;2023-05-20T08:13:03;95284.63;;;24.83;40.30
22651;BME280;11492;42.646;23.400;2023-05-20T08:15:29;95279.75;;;25.21;40.19
22651;BME280;11492;42.646;23.400;2023-05-20T08:17:55;95273.47;;;25.52;39.53
22651;BME280;11492;42.646;23.400;2023-05-20T08:20:20;95270.31;;;25.74;39.30
22651;BME280;11492;42.646;23.400;2023-05-20T08:22:46;95268.72;;;26.12;39.14
22651;BME280;11492;42.646;23.400;2023-05-20T08:25:11;95268.97;;;26.26;37.96
22651;BME280;11492;42.646;23.400;2023-05-20T08:27:37;95264.44;;;26.51;36.84
22651;BME280;11492;42.646;23.400;2023-05-20T08:30:03;95265.19;;;26.76;36.77
22651;BME280;11492;42.646;23.400;2023-05-20T08:32:29;95251.28;;;26.93;37.00
22651;BME280;11492;42.646;23.400;2023-05-20T08:34:55;95260.94;;;27.27;36.27
22651;BME280;11492;42.646;23.400;2023-05-20T08:37:21;95263.56;;;27.32;36.02
22651;BME280;11492;42.646;23.400;2023-05-20T08:39:47;95255.09;;;27.30;35.44
22651;BME280;11492;42.646;23.400;2023-05-20T08:42:14;95254.56;;;27.33;36.70
22651;BME280;11492;42.646;23.400;2023-05-20T08:44:41;95247.69;;;27.27;35.38
22651;BME280;11492;42.646;23.400;2023-05-20T08:47:07;95252.16;;;27.74;35.97
22651;BME280;11492;42.646;23.400;2023-05-20T08:49:34;95267.22;;;28.16;34.67
22651;BME280;11492;42.646;23.400;2023-05-20T08:52:00;95253.75;;;27.75;34.00
22651;BME280;11492;42.646;23.400;2023-05-20T08:54:52;95271.16;;;27.91;35.00
22651;BME280;11492;42.646;23.400;2023-05-20T08:57:17;95270.06;;;27.97;34.24
22651;BME280;11492;42.646;23.400;2023-05-20T08:59:45;95262.84;;;27.64;34.85
22651;BME280;11492;42.646;23.400;2023-05-20T09:02:13;95261.91;;;27.83;34.58
22651;BME280;11492;42.646;23.400;2023-05-20T09:04:39;95259.78;;;27.85;33.79
22651;BME280;11492;42.646;23.400;2023-05-20T09:07:05;95255.28;;;27.86;33.89
22651;BME280;11492;42.646;23.400;2023-05-20T09:09:34;95253.13;;;27.88;34.69
22651;BME280;11492;42.646;23.400;2023-05-20T09:12:00;95236.84;;;27.94;34.13
22651;BME280;11492;42.646;23.400;2023-05-20T09:14:28;95247.25;;;27.91;34.37
22651;BME280;11492;42.646;23.400;2023-05-20T09:16:53;95234.59;;;28.11;33.56
22651;BME280;11492;42.646;23.400;2023-05-20T09:19:21;95236.19;;;28.35;33.39
22651;BME280;11492;42.646;23.400;2023-05-20T09:21:46;95228.88;;;28.50;33.54
22651;BME280;11492;42.646;23.400;2023-05-20T09:24:12;95232.81;;;28.57;33.26
22651;BME280;11492;42.646;23.400;2023-05-20T09:26:38;95231.56;;;28.73;33.18
22651;BME280;11492;42.646;23.400;2023-05-20T09:29:03;95227.69;;;28.84;33.31
22651;BME280;11492;42.646;23.400;2023-05-20T09:31:32;95225.75;;;29.12;33.13
22651;BME280;11492;42.646;23.400;2023-05-20T09:34:01;95222.97;;;29.40;33.25
22651;BME280;11492;42.646;23.400;2023-05-20T09:36:28;95202.84;;;29.48;33.05
22651;BME280;11492;42.646;23.400;2023-05-20T09:38:59;95210.00;;;29.52;32.68
22651;BME280;11492;42.646;23.400;2023-05-20T09:41:33;95214.56;;;29.52;30.99
22651;BME280;11492;42.646;23.400;2023-05-20T09:43:59;95213.41;;;29.57;31.61
22651;BME280;11492;42.646;23.400;2023-05-20T09:46:25;95212.16;;;29.68;31.88
22651;BME280;11492;42.646;23.400;2023-05-20T09:48:52;95210.00;;;29.52;31.58
22651;BME280;11492;42.646;23.400;2023-05-20T09:51:18;95205.88;;;29.05;32.24
22651;BME280;11492;42.646;23.400;2023-05-20T09:53:43;95211.44;;;29.08;32.90
22651;BME280;11492;42.646;23.400;2023-05-20T09:56:09;95206.91;;;29.27;31.01
22651;BME280;11492;42.646;23.400;2023-05-20T09:58:35;95208.25;;;29.06;31.82
22651;BME280;11492;42.646;23.400;2023-05-20T10:01:01;95195.72;;;28.89;31.81
22651;BME280;11492;42.646;23.400;2023-05-20T10:03:26;95190.63;;;28.69;32.54
22651;BME280;11492;42.646;23.400;2023-05-20T10:08:55;95176.00;;;28.90;32.81
22651;BME280;11492;42.646;23.400;2023-05-20T10:11:45;95193.53;;;28.73;31.93
22651;BME280;11492;42.646;23.400;2023-05-20T10:17:01;95180.91;;;28.37;33.01
22651;BME280;11492;42.646;23.400;2023-05-20T10:19:32;95173.63;;;28.88;31.75
22651;BME280;11492;42.646;23.400;2023-05-20T10:22:02;95175.03;;;29.22;31.48
22651;BME280;11492;42.646;23.400;2023-05-20T10:24:32;95171.81;;;29.25;30.75
22651;BME280;11492;42.646;23.400;2023-05-20T10:26:59;95167.22;;;29.44;31.50
22651;BME280;11492;42.646;23.400;2023-05-20T10:29:27;95151.75;;;29.64;29.21
22651;BME280;11492;42.646;23.400;2023-05-20T10:31:52;95159.97;;;29.81;27.86
22651;BME280;11492;42.646;23.400;2023-05-20T10:34:20;95162.19;;;29.92;28.86
22651;BME280;11492;42.646;23.400;2023-05-20T10:36:56;95162.47;;;29.77;28.90
22651;BME280;11492;42.646;23.400;2023-05-20T10:39:27;95157.75;;;29.56;28.96
22651;BME280;11492;42.646;23.400;2023-05-20T10:41:53;95160.63;;;29.41;29.62
22651;BME280;11492;42.646;23.400;2023-05-20T10:44:47;95141.66;;;29.11;30.14
22651;BME280;11492;42.646;23.400;2023-05-20T10:47:14;95147.44;;;28.77;30.56
22651;BME280;11492;42.646;23.400;2023-05-20T10:49:46;95131.66;;;28.39;30.82
22651;BME280;11492;42.646;23.400;2023-05-20T10:52:18;95141.97;;;28.69;31.04
22651;BME280;11492;42.646;23.400;2023-05-20T10:55:02;95133.19;;;28.68;30.56
22651;BME280;11492;42.646;23.400;2023-05-20T10:57:29;95134.22;;;28.72;31.15
22651;BME280;11492;42.646;23.400;2023-05-20T10:59:56;95131.56;;;29.27;30.00
22651;BME280;11492;42.646;23.400;2023-05-20T11:02:22;95118.03;;;29.73;29.88
22651;BME280;11492;42.646;23.400;2023-05-20T11:04:51;95124.72;;;29.70;29.63
22651;BME280;11492;42.646;23.400;2023-05-20T11:07:30;95106.84;;;29.57;29.26
22651;BME280;11492;42.646;23.400;2023-05-20T11:09:57;95120.72;;;29.86;28.99
22651;BME280;11492;42.646;23.400;2023-05-20T11:12:24;95115.59;;;29.76;28.67
22651;BME280;11492;42.646;23.400;2023-05-20T11:14:50;95116.72;;;29.70;28.66
22651;BME280;11492;42.646;23.400;2023-05-20T11:17:17;95120.00;;;29.81;29.46
22651;BME280;11492;42.646;23.400;2023-05-20T11:19:43;95121.38;;;29.47;29.97
22651;BME280;11492;42.646;23.400;2023-05-20T11:22:08;95112.66;;;28.74;30.94
22651;BME280;11492;42.646;23.400;2023-05-20T11:24:34;95117.75;;;28.24;31.53
22651;BME280;11492;42.646;23.400;2023-05-20T11:27:00;95113.91;;;27.61;31.63
22651;BME280;11492;42.646;23.400;2023-05-20T11:29:26;95114.22;;;27.27;31.57
22651;BME280;11492;42.646;23.400;2023-05-20T11:31:53;95108.81;;;27.03;32.64
22651;BME280;11492;42.646;23.400;2023-05-20T11:34:22;95102.81;;;27.21;32.45
22651;BME280;11492;42.646;23.400;2023-05-20T11:36:54;95100.47;;;27.15;32.06
22651;BME280;11492;42.646;23.400;2023-05-20T11:39:20;95091.72;;;26.81;33.39
22651;BME280;11492;42.646;23.400;2023-05-20T11:41:46;95092.19;;;26.46;34.05
22651;BME280;11492;42.646;23.400;2023-05-20T11:44:12;95106.09;;;26.13;34.58
22651;BME280;11492;42.646;23.400;2023-05-20T11:46:45;95086.59;;;25.80;34.48
22651;BME280;11492;42.646;23.400;2023-05-20T11:49:14;95089.56;;;25.54;34.52
22651;BME280;11492;42.646;23.400;2023-05-20T11:51:41;95084.81;;;25.36;34.71
22651;BME280;11492;42.646;23.400;2023-05-20T11:54:07;95075.03;;;25.02;34.94
22651;BME280;11492;42.646;23.400;2023-05-20T11:56:37;95086.66;;;24.92;35.32
22651;BME280;11492;42.646;23.400;2023-05-20T11:59:04;95090.59;;;24.70;36.17
22651;BME280;11492;42.646;23.400;2023-05-20T12:01:33;95087.63;;;24.47;36.56
22651;BME280;11492;42.646;23.400;2023-05-20T12:04:03;95087.53;;;24.12;38.11
22651;BME280;11492;42.646;23.400;2023-05-20T12:06:29;95087.97;;;24.04;38.01
22651;BME280;11492;42.646;23.400;2023-05-20T12:08:55;95081.59;;;23.91;38.76
22651;BME280;11492;42.646;23.400;2023-05-20T12:11:20;95083.38;;;23.76;38.69
22651;BME280;11492;42.646;23.400;2023-05-20T12:13:46;95090.97;;;23.67;39.28
22651;BME280;11492;42.646;23.400;2023-05-20T12:16:11;95094.06;;;23.50;40.15
22651;BME280;11492;42.646;23.400;2023-05-20T12:18:37;95107.03;;;22.94;41.17
22651;BME280;11492;42.646;23.400;2023-05-20T12:21:02;95122.13;;;22.04;42.34
22651;BME280;11492;42.646;23.400;2023-05-20T12:23:28;95130.28;;;21.87;42.86
22651;BME280;11492;42.646;23.400;2023-05-20T12:25:58;95108.44;;;21.28;43.93
22651;BME280;11492;42.646;23.400;2023-05-20T12:28:23;95141.38;;;21.03;44.46
22651;BME280;11492;42.646;23.400;2023-05-20T12:30:48;95137.41;;;20.57;44.96
22651;BME280;11492;42.646;23.400;2023-05-20T12:33:14;95153.25;;;20.23;47.65
22651;BME280;11492;42.646;23.400;2023-05-20T12:35:41;95156.56;;;19.80;49.84
22651;BME280;11492;42.646;23.400;2023-05-20T12:38:07;95152.47;;;19.61;49.69
22651;BME280;11492;42.646;23.400;2023-05-20T12:40:34;95161.13;;;19.50;50.73
22651;BME280;11492;42.646;23.400;2023-05-20T12:43:00;95157.03;;;19.43;50.69
22651;BME280;11492;42.646;23.400;2023-05-20T12:45:26;95140.41;;;19.49;50.84
22651;BME280;11492;42.646;23.400;2023-05-20T12:47:53;95137.66;;;19.78;50.86
22651;BME280;11492;42.646;23.400;2023-05-20T12:50:19;95125.97;;;20.35;50.25
22651;BME280;11492;42.646;23.400;2023-05-20T12:52:44;95134.66;;;20.79;49.02